Terminal Aerodrome Forecast
Issued by NWS Paducah, KY

Home | Current Version | Previous Version | Text Only | Print | Product List | Glossary Off
Versions: 1 2 3 4 5 6 7 8 9 10 11 12 13 14

611
FTUS43 KPAH 051120
TAFPAH
TAF
KPAH 051120Z 0512/0612 31006KT P6SM SKC
     FM051400 35012G21KT P6SM SCT040
      TEMPO 0517/0521 BKN040
     FM060100 33003KT P6SM SKC=

USA.gov is the U.S. government's official web portal to all federal, state and local government web resources and services.